createdAt,value
2018-11-20T00:02:18.758Z,5.97
2018-11-20T00:07:33.517Z,5.73
2018-11-20T00:12:47.254Z,5.60
2018-11-20T00:17:54.165Z,5.70
2018-11-20T00:23:07.610Z,5.67
2018-11-20T00:28:11.951Z,5.47
2018-11-20T00:33:32.553Z,6.63
2018-11-20T00:38:46.309Z,6.10
2018-11-20T00:44:04.150Z,6.17
2018-11-20T00:49:27.950Z,6.20
2018-11-20T00:54:41.631Z,6.13
2018-11-20T01:00:03.988Z,5.93
2018-11-20T01:05:25.159Z,6.57
2018-11-20T01:10:52.090Z,6.30
2018-11-20T01:16:09.845Z,7.07
2018-11-20T01:21:24.930Z,7.77
2018-11-20T01:26:48.953Z,7.97
2018-11-20T01:32:05.947Z,7.87
2018-11-20T01:37:23.907Z,8.00
2018-11-20T01:42:37.459Z,8.03
2018-11-20T01:47:50.948Z,7.50
2018-11-20T01:53:11.471Z,8.70
2018-11-20T01:58:38.607Z,8.33
2018-11-20T02:03:53.940Z,8.63
2018-11-20T02:09:07.483Z,9.27
2018-11-20T02:14:49.993Z,8.93
2018-11-20T02:20:04.849Z,9.00
2018-11-20T02:25:25.526Z,10.57
2018-11-20T02:30:39.008Z,10.23
2018-11-20T02:35:53.860Z,10.83
2018-11-20T02:41:24.307Z,10.90
2018-11-20T02:46:33.399Z,11.00
2018-11-20T02:51:46.897Z,12.87
2018-11-20T02:57:13.916Z,12.03
2018-11-20T03:02:27.461Z,12.27
2018-11-20T03:07:41.327Z,12.70
2018-11-20T03:13:00.115Z,12.07
2018-11-20T03:18:13.845Z,14.03
2018-11-20T03:23:23.828Z,14.87
2018-11-20T03:28:48.145Z,15.00
2018-11-20T03:34:13.462Z,14.87
2018-11-20T03:39:24.391Z,14.00
2018-11-20T03:44:27.161Z,13.50
2018-11-20T03:49:40.910Z,14.37
2018-11-20T03:55:01.838Z,14.03
2018-11-20T04:00:16.718Z,15.50
2018-11-20T04:05:37.401Z,13.80
2018-11-20T04:10:58.095Z,15.50
2018-11-20T04:16:01.787Z,15.10
2018-11-20T04:21:16.649Z,14.70
2018-11-20T04:26:30.289Z,13.63
2018-11-20T04:32:25.652Z,13.20
2018-11-20T04:37:40.865Z,13.77
2018-11-20T04:42:52.758Z,14.37
2018-11-20T04:48:05.384Z,13.37
2018-11-20T04:53:32.194Z,14.77
2018-11-20T04:58:55.526Z,12.80
2018-11-20T05:04:08.985Z,12.93
2018-11-20T05:09:24.363Z,13.30
2018-11-20T05:14:37.815Z,13.33
2018-11-20T05:19:51.466Z,13.27
2018-11-20T05:25:06.326Z,12.07
2018-11-20T05:30:36.568Z,12.73
2018-11-20T05:35:54.191Z,12.93
2018-11-20T05:41:21.087Z,11.27
2018-11-20T05:46:34.528Z,12.63
2018-11-20T05:52:04.620Z,12.37
2018-11-20T05:57:15.194Z,13.07
2018-11-20T06:02:45.297Z,13.20
2018-11-20T06:07:58.636Z,13.17
2018-11-20T06:13:13.462Z,13.20
2018-11-20T06:18:28.541Z,13.60
2018-11-20T06:23:31.137Z,12.97
2018-11-20T06:28:50.337Z,14.07
2018-11-20T06:34:20.631Z,14.20
2018-11-20T06:39:35.516Z,14.60
2018-11-20T06:45:08.482Z,14.37
2018-11-20T06:50:22.381Z,12.87
2018-11-20T06:55:39.931Z,14.40
2018-11-20T07:00:54.153Z,14.57
2018-11-20T07:06:09.084Z,14.17
2018-11-20T07:11:26.943Z,14.40
2018-11-20T07:16:52.550Z,14.07
2018-11-20T07:22:03.260Z,13.67
2018-11-20T07:27:11.834Z,13.50
2018-11-20T07:32:25.502Z,15.13
2018-11-20T07:37:39.270Z,13.80
2018-11-20T07:43:03.549Z,14.33
2018-11-20T07:48:30.614Z,14.10
2018-11-20T07:53:54.319Z,15.10
2018-11-20T07:59:27.523Z,15.10
2018-11-20T08:04:48.079Z,12.90
2018-11-20T08:10:01.949Z,14.33
2018-11-20T08:15:06.665Z,14.47
2018-11-20T08:20:19.880Z,16.13
2018-11-20T08:25:43.985Z,15.03
2018-11-20T08:30:58.842Z,15.30
2018-11-20T08:36:18.981Z,15.17
2018-11-20T08:41:26.991Z,15.57
2018-11-20T08:46:51.091Z,14.13
2018-11-20T08:52:08.696Z,14.97
2018-11-20T08:57:22.910Z,14.80
2018-11-20T09:02:36.466Z,15.93
2018-11-20T09:07:55.023Z,14.63
2018-11-20T09:13:15.618Z,15.67
2018-11-20T09:18:45.706Z,14.53
2018-11-20T09:23:55.571Z,15.07
2018-11-20T09:29:12.940Z,15.60
2018-11-20T09:34:27.981Z,14.20
2018-11-20T09:39:45.482Z,14.50
2018-11-20T09:46:12.331Z,15.00
2018-11-20T09:51:35.696Z,15.00
2018-11-20T09:56:50.603Z,15.30
2018-11-20T10:01:56.316Z,16.57
2018-11-20T10:07:09.776Z,15.67
2018-11-20T10:12:43.018Z,15.63
2018-11-20T10:17:57.882Z,15.53
2018-11-20T10:23:11.231Z,16.57
2018-11-20T10:28:24.956Z,15.67
2018-11-20T10:33:38.406Z,16.33
2018-11-20T10:38:42.671Z,16.27
2018-11-20T10:44:03.696Z,15.83
2018-11-20T10:49:18.615Z,15.40
2018-11-20T10:54:37.571Z,15.33
2018-11-20T10:59:57.813Z,16.83
2018-11-20T11:05:11.183Z,15.50
2018-11-20T11:10:19.555Z,15.23
2018-11-20T11:15:30.554Z,15.77
2018-11-20T11:20:54.288Z,14.53
2018-11-20T11:26:08.166Z,15.43
2018-11-20T11:31:21.470Z,15.47
2018-11-20T11:36:39.362Z,13.67
2018-11-20T11:42:03.322Z,15.43
2018-11-20T11:47:16.705Z,14.87
2018-11-20T11:52:33.130Z,13.97
2018-11-20T11:58:06.035Z,16.10
2018-11-20T12:03:23.723Z,14.43
2018-11-20T12:08:50.684Z,14.13
2018-11-20T12:14:13.383Z,15.27
2018-11-20T12:19:28.273Z,14.50
2018-11-20T12:24:52.216Z,15.43
2018-11-20T12:30:02.287Z,15.50
2018-11-20T12:35:15.628Z,16.30
2018-11-20T12:40:22.860Z,13.70
2018-11-20T12:45:38.563Z,15.73
2018-11-20T12:50:56.495Z,16.50
2018-11-20T12:56:20.333Z,16.60
2018-11-20T13:01:35.086Z,15.37
2018-11-20T13:06:47.739Z,17.63
2018-11-20T13:11:57.502Z,16.60
2018-11-20T13:17:21.392Z,16.93
2018-11-20T13:22:37.490Z,15.93
2018-11-20T13:27:54.276Z,17.47
2018-11-20T13:33:09.304Z,16.60
2018-11-20T13:38:36.098Z,16.60
2018-11-20T13:43:52.288Z,16.43
2018-11-20T13:49:19.421Z,16.93
2018-11-20T13:54:34.560Z,17.10
2018-11-20T13:59:48.062Z,18.23
2018-11-20T14:05:03.096Z,17.00
2018-11-20T14:10:09.678Z,18.27
2018-11-20T14:15:23.407Z,16.83
2018-11-20T14:20:37.188Z,16.17
2018-11-20T14:25:54.020Z,16.60
2018-11-20T14:31:11.856Z,17.43
2018-11-20T14:36:25.393Z,16.90
2018-11-20T14:41:43.633Z,16.70
2018-11-20T14:46:57.300Z,16.73
2018-11-20T14:52:20.898Z,16.07
2018-11-20T14:57:35.741Z,16.97
2018-11-20T15:03:08.809Z,15.87
2018-11-20T15:08:22.355Z,15.20
2018-11-20T15:13:42.984Z,15.60
2018-11-20T15:19:03.861Z,15.97
2018-11-20T15:24:17.354Z,14.80
2018-11-20T15:29:31.053Z,15.70
2018-11-20T15:34:58.036Z,15.57
2018-11-20T15:40:15.899Z,14.53
2018-11-20T15:45:30.742Z,13.33
2018-11-20T15:50:54.848Z,11.67
2018-11-20T15:56:21.962Z,11.70
2018-11-20T16:01:43.541Z,11.37
2018-11-20T16:07:04.097Z,10.43
2018-11-20T16:12:28.968Z,10.07
2018-11-20T16:17:46.914Z,8.90
2018-11-20T16:23:01.841Z,8.77
2018-11-20T16:28:16.759Z,9.30
2018-11-20T16:33:30.442Z,7.83
2018-11-20T16:38:57.416Z,7.53
2018-11-20T16:44:21.104Z,8.97
2018-11-20T16:49:38.749Z,8.57
2018-11-20T16:54:47.304Z,8.40
2018-11-20T17:00:05.145Z,8.67
2018-11-20T17:05:25.277Z,7.80
2018-11-20T17:10:42.965Z,7.87
2018-11-20T17:15:58.948Z,8.37
2018-11-20T17:21:14.167Z,7.40
2018-11-20T17:26:22.759Z,8.23
2018-11-20T17:31:36.380Z,8.37
2018-11-20T17:36:49.756Z,7.70
2018-11-20T17:41:59.236Z,9.13
2018-11-20T17:47:19.897Z,8.97
2018-11-20T17:52:33.845Z,8.87
2018-11-20T17:57:48.693Z,9.40
2018-11-20T18:03:22.443Z,10.70
2018-11-20T18:08:37.298Z,10.83
2018-11-20T18:14:03.233Z,12.17
2018-11-20T18:19:16.988Z,9.10
2018-11-20T18:24:46.769Z,10.17
2018-11-20T18:29:50.215Z,11.10
2018-11-20T18:34:57.941Z,10.30
2018-11-20T18:40:11.489Z,10.70
2018-11-20T18:45:33.271Z,10.13
2018-11-20T18:50:59.291Z,10.37
2018-11-20T18:56:19.825Z,10.83
2018-11-20T19:01:34.855Z,11.57
2018-11-20T19:06:55.817Z,12.13
2018-11-20T19:12:28.658Z,9.60
2018-11-20T19:17:49.439Z,11.70
2018-11-20T19:23:03.097Z,11.80
2018-11-20T19:28:17.970Z,12.47
2018-11-20T19:33:47.340Z,11.53
2018-11-20T19:39:08.500Z,11.97
2018-11-20T19:44:26.304Z,12.80
2018-11-20T19:49:43.835Z,13.67
2018-11-20T19:54:57.528Z,12.50
2018-11-20T20:00:07.768Z,12.37
2018-11-20T20:05:21.602Z,11.30
2018-11-20T20:10:36.603Z,13.00
2018-11-20T20:15:46.467Z,12.40
2018-11-20T20:21:04.236Z,14.27
2018-11-20T20:26:31.145Z,12.00
2018-11-20T20:31:48.674Z,13.10
2018-11-20T20:37:02.406Z,13.60
2018-11-20T20:42:23.338Z,14.00
2018-11-20T20:47:36.958Z,13.90
2018-11-20T20:52:50.369Z,14.00
2018-11-20T20:59:09.414Z,15.30
2018-11-20T21:04:38.270Z,14.43
2018-11-20T21:09:49.301Z,13.77
2018-11-20T21:15:05.787Z,14.20
2018-11-20T21:20:18.121Z,14.67
2018-11-20T21:25:31.965Z,14.20
2018-11-20T21:30:56.115Z,14.73
2018-11-20T21:36:18.906Z,14.00
2018-11-20T21:41:44.882Z,14.47
2018-11-20T21:47:16.566Z,13.90
2018-11-20T21:52:33.082Z,13.83
2018-11-20T21:57:49.797Z,13.63
2018-11-20T22:03:04.429Z,14.73
2018-11-20T22:08:07.097Z,15.57
2018-11-20T22:13:30.232Z,14.07
2018-11-20T22:18:43.995Z,15.40
2018-11-20T22:24:00.405Z,14.13
2018-11-20T22:29:12.865Z,14.20
2018-11-20T22:34:41.501Z,13.80
2018-11-20T22:39:53.996Z,13.93
2018-11-20T22:44:58.063Z,14.10
2018-11-20T22:50:02.923Z,13.37
2018-11-20T22:55:34.891Z,14.10
2018-11-20T23:00:47.250Z,13.57
2018-11-20T23:05:59.299Z,14.00
2018-11-20T23:10:53.946Z,13.27
2018-11-20T23:15:48.657Z,13.60
2018-11-20T23:20:43.272Z,13.60
2018-11-20T23:25:37.985Z,13.23
2018-11-20T23:30:32.647Z,12.97
2018-11-20T23:35:27.393Z,12.00
2018-11-20T23:40:21.998Z,11.70
2018-11-20T23:45:16.927Z,13.37
2018-11-20T23:50:13.548Z,13.27
2018-11-20T23:55:11.486Z,13.57
